sensor_id;sensor_type;location;lat;lon;timestamp;P1;durP1;ratioP1;P2;durP2;ratioP2
23086;SDS011;11712;51.134;4.156;2023-02-13T00:01:14;0.50;;;0.50;;
23086;SDS011;11712;51.134;4.156;2023-02-13T00:03:40;0.50;;;0.50;;
23086;SDS011;11712;51.134;4.156;2023-02-13T00:06:06;0.50;;;0.50;;
23086;SDS011;11712;51.134;4.156;2023-02-13T00:08:32;0.50;;;0.50;;
23086;SDS011;11712;51.134;4.156;2023-02-13T00:10:58;0.50;;;0.50;;
23086;SDS011;11712;51.134;4.156;2023-02-13T00:13:24;0.50;;;0.50;;
23086;SDS011;11712;51.134;4.156;2023-02-13T00:15:57;0.50;;;0.50;;
23086;SDS011;11712;51.134;4.156;2023-02-13T00:18:23;0.50;;;0.50;;
23086;SDS011;11712;51.134;4.156;2023-02-13T00:20:57;0.50;;;0.50;;
23086;SDS011;11712;51.134;4.156;2023-02-13T00:23:24;0.50;;;0.50;;
23086;SDS011;11712;51.134;4.156;2023-02-13T00:25:49;0.50;;;0.50;;
23086;SDS011;11712;51.134;4.156;2023-02-13T00:28:15;0.50;;;0.50;;
23086;SDS011;11712;51.134;4.156;2023-02-13T00:30:41;0.52;;;0.52;;
23086;SDS011;11712;51.134;4.156;2023-02-13T00:33:06;0.50;;;0.50;;
23086;SDS011;11712;51.134;4.156;2023-02-13T00:35:32;0.47;;;0.47;;
23086;SDS011;11712;51.134;4.156;2023-02-13T00:37:58;0.50;;;0.50;;
23086;SDS011;11712;51.134;4.156;2023-02-13T00:40:23;0.50;;;0.50;;
23086;SDS011;11712;51.134;4.156;2023-02-13T00:42:49;0.50;;;0.50;;
23086;SDS011;11712;51.134;4.156;2023-02-13T00:45:15;0.50;;;0.50;;
23086;SDS011;11712;51.134;4.156;2023-02-13T00:47:40;0.50;;;0.50;;
23086;SDS011;11712;51.134;4.156;2023-02-13T00:50:06;0.50;;;0.50;;
23086;SDS011;11712;51.134;4.156;2023-02-13T00:52:32;0.50;;;0.50;;
23086;SDS011;11712;51.134;4.156;2023-02-13T00:54:57;0.50;;;0.50;;
23086;SDS011;11712;51.134;4.156;2023-02-13T00:57:23;0.50;;;0.50;;
23086;SDS011;11712;51.134;4.156;2023-02-13T00:59:49;0.50;;;0.50;;
23086;SDS011;11712;51.134;4.156;2023-02-13T01:02:15;0.50;;;0.50;;
23086;SDS011;11712;51.134;4.156;2023-02-13T01:04:40;0.50;;;0.50;;
23086;SDS011;11712;51.134;4.156;2023-02-13T01:07:06;0.50;;;0.50;;
23086;SDS011;11712;51.134;4.156;2023-02-13T01:09:32;0.50;;;0.50;;
23086;SDS011;11712;51.134;4.156;2023-02-13T01:11:57;0.50;;;0.50;;
23086;SDS011;11712;51.134;4.156;2023-02-13T01:14:23;0.50;;;0.50;;
23086;SDS011;11712;51.134;4.156;2023-02-13T01:16:49;0.50;;;0.50;;
23086;SDS011;11712;51.134;4.156;2023-02-13T01:19:14;0.50;;;0.50;;
23086;SDS011;11712;51.134;4.156;2023-02-13T01:21:41;0.50;;;0.50;;
23086;SDS011;11712;51.134;4.156;2023-02-13T01:24:07;0.60;;;0.60;;
23086;SDS011;11712;51.134;4.156;2023-02-13T01:26:33;0.50;;;0.50;;
23086;SDS011;11712;51.134;4.156;2023-02-13T01:28:58;0.50;;;0.50;;
23086;SDS011;11712;51.134;4.156;2023-02-13T01:31:25;0.50;;;0.50;;
23086;SDS011;11712;51.134;4.156;2023-02-13T01:33:51;0.50;;;0.50;;
23086;SDS011;11712;51.134;4.156;2023-02-13T01:36:16;0.50;;;0.50;;
23086;SDS011;11712;51.134;4.156;2023-02-13T01:38:42;0.50;;;0.50;;
23086;SDS011;11712;51.134;4.156;2023-02-13T01:41:08;0.50;;;0.50;;
23086;SDS011;11712;51.134;4.156;2023-02-13T01:43:51;0.50;;;0.50;;
23086;SDS011;11712;51.134;4.156;2023-02-13T01:46:20;0.50;;;0.50;;
23086;SDS011;11712;51.134;4.156;2023-02-13T01:48:50;0.50;;;0.50;;
23086;SDS011;11712;51.134;4.156;2023-02-13T01:51:19;0.60;;;0.60;;
23086;SDS011;11712;51.134;4.156;2023-02-13T01:59:06;0.50;;;0.50;;
23086;SDS011;11712;51.134;4.156;2023-02-13T02:01:43;0.50;;;0.50;;
23086;SDS011;11712;51.134;4.156;2023-02-13T02:04:19;0.50;;;0.50;;
23086;SDS011;11712;51.134;4.156;2023-02-13T02:06:54;0.50;;;0.50;;
23086;SDS011;11712;51.134;4.156;2023-02-13T02:09:28;0.50;;;0.50;;
23086;SDS011;11712;51.134;4.156;2023-02-13T02:12:00;0.50;;;0.50;;
23086;SDS011;11712;51.134;4.156;2023-02-13T02:14:30;0.50;;;0.50;;
23086;SDS011;11712;51.134;4.156;2023-02-13T02:16:56;0.50;;;0.50;;
23086;SDS011;11712;51.134;4.156;2023-02-13T02:19:39;0.50;;;0.50;;
23086;SDS011;11712;51.134;4.156;2023-02-13T02:25:40;0.50;;;0.50;;
23086;SDS011;11712;51.134;4.156;2023-02-13T02:37:03;0.50;;;0.50;;
23086;SDS011;11712;51.134;4.156;2023-02-13T02:42:19;0.50;;;0.50;;
23086;SDS011;11712;51.134;4.156;2023-02-13T02:48:09;0.50;;;0.50;;
23086;SDS011;11712;51.134;4.156;2023-02-13T02:54:34;0.50;;;0.50;;
23086;SDS011;11712;51.134;4.156;2023-02-13T02:57:26;0.50;;;0.50;;
23086;SDS011;11712;51.134;4.156;2023-02-13T03:00:13;0.50;;;0.50;;
23086;SDS011;11712;51.134;4.156;2023-02-13T03:03:05;0.50;;;0.50;;
23086;SDS011;11712;51.134;4.156;2023-02-13T03:06:00;0.50;;;0.50;;
23086;SDS011;11712;51.134;4.156;2023-02-13T03:08:42;0.50;;;0.50;;
23086;SDS011;11712;51.134;4.156;2023-02-13T03:11:28;0.50;;;0.50;;
23086;SDS011;11712;51.134;4.156;2023-02-13T03:14:14;0.52;;;0.52;;
23086;SDS011;11712;51.134;4.156;2023-02-13T03:16:44;0.50;;;0.50;;
23086;SDS011;11712;51.134;4.156;2023-02-13T03:19:42;0.50;;;0.50;;
23086;SDS011;11712;51.134;4.156;2023-02-13T03:25:11;0.50;;;0.50;;
23086;SDS011;11712;51.134;4.156;2023-02-13T03:31:20;0.60;;;0.60;;
23086;SDS011;11712;51.134;4.156;2023-02-13T03:34:06;0.50;;;0.50;;
23086;SDS011;11712;51.134;4.156;2023-02-13T03:39:54;0.50;;;0.50;;
23086;SDS011;11712;51.134;4.156;2023-02-13T03:45:14;0.60;;;0.60;;
23086;SDS011;11712;51.134;4.156;2023-02-13T03:48:03;0.50;;;0.50;;
23086;SDS011;11712;51.134;4.156;2023-02-13T03:50:33;0.57;;;0.57;;
23086;SDS011;11712;51.134;4.156;2023-02-13T03:53:11;0.60;;;0.60;;
23086;SDS011;11712;51.134;4.156;2023-02-13T03:55:39;0.60;;;0.60;;
23086;SDS011;11712;51.134;4.156;2023-02-13T03:58:34;0.50;;;0.50;;
23086;SDS011;11712;51.134;4.156;2023-02-13T04:01:24;0.50;;;0.50;;
23086;SDS011;11712;51.134;4.156;2023-02-13T04:03:56;0.50;;;0.50;;
23086;SDS011;11712;51.134;4.156;2023-02-13T04:06:39;0.50;;;0.50;;
23086;SDS011;11712;51.134;4.156;2023-02-13T04:09:07;0.50;;;0.50;;
23086;SDS011;11712;51.134;4.156;2023-02-13T04:11:34;0.55;;;0.55;;
23086;SDS011;11712;51.134;4.156;2023-02-13T04:14:10;0.50;;;0.50;;
23086;SDS011;11712;51.134;4.156;2023-02-13T04:16:43;0.60;;;0.60;;
23086;SDS011;11712;51.134;4.156;2023-02-13T04:19:13;0.50;;;0.50;;
23086;SDS011;11712;51.134;4.156;2023-02-13T04:21:40;0.50;;;0.50;;
23086;SDS011;11712;51.134;4.156;2023-02-13T04:24:06;0.60;;;0.60;;
23086;SDS011;11712;51.134;4.156;2023-02-13T04:26:33;0.52;;;0.52;;
23086;SDS011;11712;51.134;4.156;2023-02-13T04:29:01;0.50;;;0.50;;
23086;SDS011;11712;51.134;4.156;2023-02-13T04:31:27;0.50;;;0.50;;
23086;SDS011;11712;51.134;4.156;2023-02-13T04:33:52;0.50;;;0.50;;
23086;SDS011;11712;51.134;4.156;2023-02-13T04:36:19;0.50;;;0.50;;
23086;SDS011;11712;51.134;4.156;2023-02-13T04:38:45;0.50;;;0.50;;
23086;SDS011;11712;51.134;4.156;2023-02-13T04:41:11;0.50;;;0.50;;
23086;SDS011;11712;51.134;4.156;2023-02-13T04:43:37;0.50;;;0.50;;
23086;SDS011;11712;51.134;4.156;2023-02-13T04:46:02;0.50;;;0.50;;
23086;SDS011;11712;51.134;4.156;2023-02-13T04:48:28;0.50;;;0.50;;
23086;SDS011;11712;51.134;4.156;2023-02-13T04:50:54;0.60;;;0.60;;
23086;SDS011;11712;51.134;4.156;2023-02-13T04:53:20;0.50;;;0.50;;
23086;SDS011;11712;51.134;4.156;2023-02-13T04:55:45;0.50;;;0.50;;
23086;SDS011;11712;51.134;4.156;2023-02-13T04:58:11;0.60;;;0.60;;
23086;SDS011;11712;51.134;4.156;2023-02-13T05:00:37;0.50;;;0.50;;
23086;SDS011;11712;51.134;4.156;2023-02-13T05:03:03;0.50;;;0.50;;
23086;SDS011;11712;51.134;4.156;2023-02-13T05:05:34;0.60;;;0.60;;
23086;SDS011;11712;51.134;4.156;2023-02-13T05:08:00;0.80;;;0.80;;
23086;SDS011;11712;51.134;4.156;2023-02-13T05:10:26;0.80;;;0.80;;
23086;SDS011;11712;51.134;4.156;2023-02-13T05:12:52;1.30;;;1.30;;
23086;SDS011;11712;51.134;4.156;2023-02-13T05:15:18;1.20;;;1.20;;
23086;SDS011;11712;51.134;4.156;2023-02-13T05:17:44;0.60;;;0.60;;
23086;SDS011;11712;51.134;4.156;2023-02-13T05:20:11;0.60;;;0.60;;
23086;SDS011;11712;51.134;4.156;2023-02-13T05:22:47;0.60;;;0.60;;
23086;SDS011;11712;51.134;4.156;2023-02-13T05:25:34;0.60;;;0.60;;
23086;SDS011;11712;51.134;4.156;2023-02-13T05:28:00;0.55;;;0.55;;
23086;SDS011;11712;51.134;4.156;2023-02-13T05:30:27;0.50;;;0.50;;
23086;SDS011;11712;51.134;4.156;2023-02-13T05:32:52;0.50;;;0.50;;
23086;SDS011;11712;51.134;4.156;2023-02-13T05:35:19;0.50;;;0.50;;
23086;SDS011;11712;51.134;4.156;2023-02-13T05:37:46;0.50;;;0.50;;
23086;SDS011;11712;51.134;4.156;2023-02-13T05:40:12;0.60;;;0.60;;
23086;SDS011;11712;51.134;4.156;2023-02-13T05:42:39;0.50;;;0.50;;
23086;SDS011;11712;51.134;4.156;2023-02-13T05:45:05;0.90;;;0.90;;
23086;SDS011;11712;51.134;4.156;2023-02-13T05:47:31;1.60;;;1.50;;
23086;SDS011;11712;51.134;4.156;2023-02-13T05:49:57;0.95;;;0.95;;
23086;SDS011;11712;51.134;4.156;2023-02-13T05:52:22;1.05;;;1.00;;
23086;SDS011;11712;51.134;4.156;2023-02-13T05:54:48;3.13;;;2.50;;
23086;SDS011;11712;51.134;4.156;2023-02-13T05:57:14;2.90;;;2.60;;
23086;SDS011;11712;51.134;4.156;2023-02-13T05:59:39;2.67;;;2.47;;
23086;SDS011;11712;51.134;4.156;2023-02-13T06:02:05;4.10;;;3.50;;
23086;SDS011;11712;51.134;4.156;2023-02-13T06:04:31;3.40;;;3.10;;
23086;SDS011;11712;51.134;4.156;2023-02-13T06:06:57;3.20;;;2.90;;
23086;SDS011;11712;51.134;4.156;2023-02-13T06:09:22;5.60;;;4.90;;
23086;SDS011;11712;51.134;4.156;2023-02-13T06:11:48;3.42;;;3.13;;
23086;SDS011;11712;51.134;4.156;2023-02-13T06:14:14;5.05;;;4.30;;
23086;SDS011;11712;51.134;4.156;2023-02-13T06:16:39;3.97;;;3.58;;
23086;SDS011;11712;51.134;4.156;2023-02-13T06:19:05;3.22;;;2.92;;
23086;SDS011;11712;51.134;4.156;2023-02-13T06:21:31;5.18;;;4.07;;
23086;SDS011;11712;51.134;4.156;2023-02-13T06:24:02;3.78;;;3.33;;
23086;SDS011;11712;51.134;4.156;2023-02-13T06:26:32;3.22;;;2.92;;
23086;SDS011;11712;51.134;4.156;2023-02-13T06:28:58;3.25;;;2.95;;
23086;SDS011;11712;51.134;4.156;2023-02-13T06:31:23;2.83;;;2.63;;
23086;SDS011;11712;51.134;4.156;2023-02-13T06:33:49;3.00;;;2.70;;
23086;SDS011;11712;51.134;4.156;2023-02-13T06:36:15;2.50;;;2.30;;
23086;SDS011;11712;51.134;4.156;2023-02-13T06:38:40;3.55;;;3.13;;
23086;SDS011;11712;51.134;4.156;2023-02-13T06:41:07;2.50;;;2.22;;
23086;SDS011;11712;51.134;4.156;2023-02-13T06:43:34;2.15;;;1.95;;
23086;SDS011;11712;51.134;4.156;2023-02-13T06:46:03;1.75;;;1.65;;
23086;SDS011;11712;51.134;4.156;2023-02-13T06:48:30;2.03;;;1.83;;
23086;SDS011;11712;51.134;4.156;2023-02-13T06:50:55;2.72;;;2.25;;
23086;SDS011;11712;51.134;4.156;2023-02-13T06:53:21;2.08;;;1.85;;
23086;SDS011;11712;51.134;4.156;2023-02-13T06:55:50;2.10;;;1.90;;
23086;SDS011;11712;51.134;4.156;2023-02-13T06:58:16;1.95;;;1.63;;
23086;SDS011;11712;51.134;4.156;2023-02-13T07:00:43;3.70;;;2.55;;
23086;SDS011;11712;51.134;4.156;2023-02-13T07:03:09;2.50;;;2.00;;
23086;SDS011;11712;51.134;4.156;2023-02-13T07:05:37;2.63;;;2.28;;
23086;SDS011;11712;51.134;4.156;2023-02-13T07:08:05;1.70;;;1.60;;
23086;SDS011;11712;51.134;4.156;2023-02-13T07:10:31;1.75;;;1.63;;
23086;SDS011;11712;51.134;4.156;2023-02-13T07:12:56;1.50;;;1.40;;
23086;SDS011;11712;51.134;4.156;2023-02-13T07:15:22;1.50;;;1.40;;
23086;SDS011;11712;51.134;4.156;2023-02-13T07:17:53;0.60;;;0.60;;
23086;SDS011;11712;51.134;4.156;2023-02-13T07:20:20;0.60;;;0.60;;
23086;SDS011;11712;51.134;4.156;2023-02-13T07:22:45;0.60;;;0.60;;
23086;SDS011;11712;51.134;4.156;2023-02-13T07:25:11;0.70;;;0.70;;
23086;SDS011;11712;51.134;4.156;2023-02-13T07:27:37;1.10;;;1.10;;
23086;SDS011;11712;51.134;4.156;2023-02-13T07:30:02;1.20;;;1.20;;
23086;SDS011;11712;51.134;4.156;2023-02-13T07:32:28;1.48;;;1.38;;
23086;SDS011;11712;51.134;4.156;2023-02-13T07:34:54;1.10;;;1.10;;
23086;SDS011;11712;51.134;4.156;2023-02-13T07:37:19;1.77;;;1.67;;
23086;SDS011;11712;51.134;4.156;2023-02-13T07:39:45;1.50;;;1.40;;
23086;SDS011;11712;51.134;4.156;2023-02-13T07:42:11;1.45;;;1.35;;
23086;SDS011;11712;51.134;4.156;2023-02-13T07:44:36;1.45;;;1.35;;
23086;SDS011;11712;51.134;4.156;2023-02-13T07:47:02;2.13;;;1.98;;
23086;SDS011;11712;51.134;4.156;2023-02-13T07:49:28;1.83;;;1.73;;
23086;SDS011;11712;51.134;4.156;2023-02-13T07:51:55;1.60;;;1.50;;
23086;SDS011;11712;51.134;4.156;2023-02-13T07:54:22;1.48;;;1.38;;
23086;SDS011;11712;51.134;4.156;2023-02-13T07:56:48;2.08;;;1.98;;
23086;SDS011;11712;51.134;4.156;2023-02-13T07:59:14;1.73;;;1.63;;
23086;SDS011;11712;51.134;4.156;2023-02-13T08:01:39;1.10;;;1.10;;
23086;SDS011;11712;51.134;4.156;2023-02-13T08:04:05;1.10;;;1.10;;
23086;SDS011;11712;51.134;4.156;2023-02-13T08:06:31;1.50;;;1.40;;
23086;SDS011;11712;51.134;4.156;2023-02-13T08:08:56;1.40;;;1.30;;
23086;SDS011;11712;51.134;4.156;2023-02-13T08:11:41;1.20;;;1.10;;
23086;SDS011;11712;51.134;4.156;2023-02-13T08:14:20;0.90;;;0.90;;
23086;SDS011;11712;51.134;4.156;2023-02-13T08:16:47;0.70;;;0.70;;
23086;SDS011;11712;51.134;4.156;2023-02-13T08:19:13;0.80;;;0.80;;
23086;SDS011;11712;51.134;4.156;2023-02-13T08:21:39;0.70;;;0.70;;
23086;SDS011;11712;51.134;4.156;2023-02-13T08:24:05;0.63;;;0.63;;
23086;SDS011;11712;51.134;4.156;2023-02-13T08:26:31;0.60;;;0.60;;
23086;SDS011;11712;51.134;4.156;2023-02-13T08:28:58;0.60;;;0.60;;
23086;SDS011;11712;51.134;4.156;2023-02-13T08:31:23;0.60;;;0.60;;
23086;SDS011;11712;51.134;4.156;2023-02-13T08:33:49;0.50;;;0.50;;
23086;SDS011;11712;51.134;4.156;2023-02-13T08:36:15;0.50;;;0.50;;
23086;SDS011;11712;51.134;4.156;2023-02-13T08:38:43;0.50;;;0.50;;
23086;SDS011;11712;51.134;4.156;2023-02-13T08:41:08;0.50;;;0.50;;
23086;SDS011;11712;51.134;4.156;2023-02-13T08:43:34;0.50;;;0.50;;
23086;SDS011;11712;51.134;4.156;2023-02-13T08:46:00;0.60;;;0.60;;
23086;SDS011;11712;51.134;4.156;2023-02-13T08:48:26;0.60;;;0.60;;
23086;SDS011;11712;51.134;4.156;2023-02-13T08:50:52;0.50;;;0.50;;
23086;SDS011;11712;51.134;4.156;2023-02-13T08:53:17;0.50;;;0.50;;
23086;SDS011;11712;51.134;4.156;2023-02-13T08:55:50;0.50;;;0.50;;
23086;SDS011;11712;51.134;4.156;2023-02-13T08:58:19;0.50;;;0.50;;
23086;SDS011;11712;51.134;4.156;2023-02-13T09:00:45;0.50;;;0.50;;
23086;SDS011;11712;51.134;4.156;2023-02-13T09:03:10;0.50;;;0.50;;
23086;SDS011;11712;51.134;4.156;2023-02-13T09:05:36;0.50;;;0.50;;
23086;SDS011;11712;51.134;4.156;2023-02-13T09:08:02;0.50;;;0.50;;
23086;SDS011;11712;51.134;4.156;2023-02-13T09:10:28;0.50;;;0.50;;
23086;SDS011;11712;51.134;4.156;2023-02-13T09:12:57;0.50;;;0.50;;
23086;SDS011;11712;51.134;4.156;2023-02-13T09:15:25;0.50;;;0.50;;
23086;SDS011;11712;51.134;4.156;2023-02-13T09:17:51;0.50;;;0.50;;
23086;SDS011;11712;51.134;4.156;2023-02-13T09:20:17;0.50;;;0.50;;
23086;SDS011;11712;51.134;4.156;2023-02-13T09:22:42;0.50;;;0.50;;
23086;SDS011;11712;51.134;4.156;2023-02-13T09:25:08;0.50;;;0.50;;
23086;SDS011;11712;51.134;4.156;2023-02-13T09:27:34;0.50;;;0.50;;
23086;SDS011;11712;51.134;4.156;2023-02-13T09:30:03;0.50;;;0.50;;
23086;SDS011;11712;51.134;4.156;2023-02-13T09:32:30;0.50;;;0.50;;
23086;SDS011;11712;51.134;4.156;2023-02-13T09:34:55;0.50;;;0.50;;
23086;SDS011;11712;51.134;4.156;2023-02-13T09:37:21;0.50;;;0.50;;
23086;SDS011;11712;51.134;4.156;2023-02-13T09:39:47;0.50;;;0.50;;
23086;SDS011;11712;51.134;4.156;2023-02-13T09:42:23;0.50;;;0.50;;
23086;SDS011;11712;51.134;4.156;2023-02-13T09:44:53;0.50;;;0.50;;
23086;SDS011;11712;51.134;4.156;2023-02-13T09:47:27;0.50;;;0.50;;
23086;SDS011;11712;51.134;4.156;2023-02-13T09:49:59;0.50;;;0.50;;
23086;SDS011;11712;51.134;4.156;2023-02-13T09:52:32;0.50;;;0.50;;
23086;SDS011;11712;51.134;4.156;2023-02-13T09:55:00;0.50;;;0.50;;
23086;SDS011;11712;51.134;4.156;2023-02-13T10:11:02;0.50;;;0.50;;
23086;SDS011;11712;51.134;4.156;2023-02-13T10:13:13;0.50;;;0.50;;
23086;SDS011;11712;51.134;4.156;2023-02-13T10:19:01;0.50;;;0.50;;
23086;SDS011;11712;51.134;4.156;2023-02-13T10:21:29;0.40;;;0.40;;
23086;SDS011;11712;51.134;4.156;2023-02-13T10:24:46;0.50;;;0.50;;
23086;SDS011;11712;51.134;4.156;2023-02-13T10:26:55;0.40;;;0.40;;
23086;SDS011;11712;51.134;4.156;2023-02-13T10:32:41;0.40;;;0.40;;
23086;SDS011;11712;51.134;4.156;2023-02-13T10:36:08;0.40;;;0.40;;
23086;SDS011;11712;51.134;4.156;2023-02-13T10:38:42;0.40;;;0.40;;
23086;SDS011;11712;51.134;4.156;2023-02-13T10:58:20;0.40;;;0.40;;
23086;SDS011;11712;51.134;4.156;2023-02-13T11:00:58;0.40;;;0.40;;
23086;SDS011;11712;51.134;4.156;2023-02-13T11:03:26;0.40;;;0.40;;
23086;SDS011;11712;51.134;4.156;2023-02-13T11:05:53;0.40;;;0.40;;
23086;SDS011;11712;51.134;4.156;2023-02-13T11:08:34;0.50;;;0.50;;
23086;SDS011;11712;51.134;4.156;2023-02-13T11:12:24;0.50;;;0.50;;
23086;SDS011;11712;51.134;4.156;2023-02-13T11:14:59;0.40;;;0.40;;
23086;SDS011;11712;51.134;4.156;2023-02-13T11:17:27;0.50;;;0.50;;
23086;SDS011;11712;51.134;4.156;2023-02-13T11:19:57;0.50;;;0.50;;
23086;SDS011;11712;51.134;4.156;2023-02-13T11:22:35;0.50;;;0.50;;
23086;SDS011;11712;51.134;4.156;2023-02-13T11:28:03;0.50;;;0.50;;
23086;SDS011;11712;51.134;4.156;2023-02-13T11:30:40;0.50;;;0.50;;
23086;SDS011;11712;51.134;4.156;2023-02-13T11:33:17;0.50;;;0.50;;
23086;SDS011;11712;51.134;4.156;2023-02-13T11:36:03;0.43;;;0.43;;
23086;SDS011;11712;51.134;4.156;2023-02-13T11:38:30;0.40;;;0.40;;
23086;SDS011;11712;51.134;4.156;2023-02-13T11:41:04;0.40;;;0.40;;
23086;SDS011;11712;51.134;4.156;2023-02-13T11:43:48;0.50;;;0.50;;
23086;SDS011;11712;51.134;4.156;2023-02-13T11:46:19;0.50;;;0.50;;
23086;SDS011;11712;51.134;4.156;2023-02-13T11:48:57;0.40;;;0.40;;
23086;SDS011;11712;51.134;4.156;2023-02-13T11:51:33;0.40;;;0.40;;
23086;SDS011;11712;51.134;4.156;2023-02-13T11:57:26;0.50;;;0.50;;
23086;SDS011;11712;51.134;4.156;2023-02-13T11:59:52;0.40;;;0.40;;
23086;SDS011;11712;51.134;4.156;2023-02-13T12:02:22;0.50;;;0.50;;
23086;SDS011;11712;51.134;4.156;2023-02-13T12:04:50;0.47;;;0.47;;
23086;SDS011;11712;51.134;4.156;2023-02-13T12:07:36;0.47;;;0.47;;
23086;SDS011;11712;51.134;4.156;2023-02-13T12:10:10;0.40;;;0.40;;
23086;SDS011;11712;51.134;4.156;2023-02-13T12:15:26;0.40;;;0.40;;
23086;SDS011;11712;51.134;4.156;2023-02-13T12:18:12;0.50;;;0.50;;
23086;SDS011;11712;51.134;4.156;2023-02-13T12:26:06;0.50;;;0.50;;
23086;SDS011;11712;51.134;4.156;2023-02-13T12:32:00;0.40;;;0.40;;
23086;SDS011;11712;51.134;4.156;2023-02-13T12:40:14;0.40;;;0.40;;
23086;SDS011;11712;51.134;4.156;2023-02-13T12:48:37;0.40;;;0.40;;
23086;SDS011;11712;51.134;4.156;2023-02-13T12:51:24;0.40;;;0.40;;
23086;SDS011;11712;51.134;4.156;2023-02-13T13:02:28;0.40;;;0.40;;
23086;SDS011;11712;51.134;4.156;2023-02-13T13:05:05;0.40;;;0.40;;
23086;SDS011;11712;51.134;4.156;2023-02-13T13:08:15;0.40;;;0.40;;
23086;SDS011;11712;51.134;4.156;2023-02-13T13:11:00;0.43;;;0.43;;
23086;SDS011;11712;51.134;4.156;2023-02-13T13:19:12;0.50;;;0.50;;
23086;SDS011;11712;51.134;4.156;2023-02-13T13:22:12;0.45;;;0.45;;
23086;SDS011;11712;51.134;4.156;2023-02-13T13:27:17;0.40;;;0.40;;
23086;SDS011;11712;51.134;4.156;2023-02-13T13:32:43;0.47;;;0.47;;
23086;SDS011;11712;51.134;4.156;2023-02-13T13:35:15;0.43;;;0.43;;
23086;SDS011;11712;51.134;4.156;2023-02-13T13:38:04;0.50;;;0.50;;
23086;SDS011;11712;51.134;4.156;2023-02-13T13:40:46;0.40;;;0.40;;
23086;SDS011;11712;51.134;4.156;2023-02-13T13:45:48;0.40;;;0.40;;
23086;SDS011;11712;51.134;4.156;2023-02-13T13:48:56;0.40;;;0.40;;
23086;SDS011;11712;51.134;4.156;2023-02-13T13:51:21;0.40;;;0.40;;
23086;SDS011;11712;51.134;4.156;2023-02-13T13:56:25;0.50;;;0.50;;
23086;SDS011;11712;51.134;4.156;2023-02-13T13:59:55;0.50;;;0.50;;
23086;SDS011;11712;51.134;4.156;2023-02-13T14:05:00;0.40;;;0.40;;
23086;SDS011;11712;51.134;4.156;2023-02-13T14:07:34;0.47;;;0.47;;
23086;SDS011;11712;51.134;4.156;2023-02-13T14:10:02;0.45;;;0.45;;
23086;SDS011;11712;51.134;4.156;2023-02-13T14:14:56;0.50;;;0.50;;
23086;SDS011;11712;51.134;4.156;2023-02-13T14:20:21;0.40;;;0.40;;
23086;SDS011;11712;51.134;4.156;2023-02-13T14:22:47;0.50;;;0.50;;
23086;SDS011;11712;51.134;4.156;2023-02-13T14:25:21;0.50;;;0.50;;
23086;SDS011;11712;51.134;4.156;2023-02-13T14:27:56;0.40;;;0.40;;
23086;SDS011;11712;51.134;4.156;2023-02-13T14:32:54;0.50;;;0.50;;
23086;SDS011;11712;51.134;4.156;2023-02-13T14:35:31;0.50;;;0.50;;
23086;SDS011;11712;51.134;4.156;2023-02-13T14:38:03;0.40;;;0.40;;
23086;SDS011;11712;51.134;4.156;2023-02-13T14:45:46;0.40;;;0.40;;
23086;SDS011;11712;51.134;4.156;2023-02-13T14:48:13;0.40;;;0.40;;
23086;SDS011;11712;51.134;4.156;2023-02-13T14:50:47;0.40;;;0.40;;
23086;SDS011;11712;51.134;4.156;2023-02-13T14:53:45;0.40;;;0.40;;
23086;SDS011;11712;51.134;4.156;2023-02-13T14:56:17;0.50;;;0.50;;
23086;SDS011;11712;51.134;4.156;2023-02-13T14:58:53;0.47;;;0.47;;
23086;SDS011;11712;51.134;4.156;2023-02-13T15:01:58;0.50;;;0.50;;
23086;SDS011;11712;51.134;4.156;2023-02-13T15:04:34;0.40;;;0.40;;
23086;SDS011;11712;51.134;4.156;2023-02-13T15:07:06;0.40;;;0.40;;
23086;SDS011;11712;51.134;4.156;2023-02-13T15:09:40;0.40;;;0.40;;
23086;SDS011;11712;51.134;4.156;2023-02-13T15:12:38;0.47;;;0.47;;
23086;SDS011;11712;51.134;4.156;2023-02-13T15:15:23;0.45;;;0.45;;
23086;SDS011;11712;51.134;4.156;2023-02-13T15:18:10;0.40;;;0.40;;
23086;SDS011;11712;51.134;4.156;2023-02-13T15:20:43;0.40;;;0.40;;
23086;SDS011;11712;51.134;4.156;2023-02-13T15:23:22;0.50;;;0.50;;
23086;SDS011;11712;51.134;4.156;2023-02-13T15:26:00;0.50;;;0.50;;
23086;SDS011;11712;51.134;4.156;2023-02-13T15:28:29;0.50;;;0.50;;
23086;SDS011;11712;51.134;4.156;2023-02-13T15:30:56;0.40;;;0.40;;
23086;SDS011;11712;51.134;4.156;2023-02-13T15:33:45;0.40;;;0.40;;
23086;SDS011;11712;51.134;4.156;2023-02-13T15:36:16;0.43;;;0.43;;
23086;SDS011;11712;51.134;4.156;2023-02-13T15:38:44;0.40;;;0.40;;
23086;SDS011;11712;51.134;4.156;2023-02-13T15:41:17;0.40;;;0.40;;
23086;SDS011;11712;51.134;4.156;2023-02-13T15:43:52;0.30;;;0.30;;
23086;SDS011;11712;51.134;4.156;2023-02-13T15:46:23;0.40;;;0.40;;
23086;SDS011;11712;51.134;4.156;2023-02-13T15:48:51;0.35;;;0.35;;
23086;SDS011;11712;51.134;4.156;2023-02-13T15:51:22;0.40;;;0.40;;
23086;SDS011;11712;51.134;4.156;2023-02-13T15:53:52;0.40;;;0.40;;
23086;SDS011;11712;51.134;4.156;2023-02-13T15:56:20;0.40;;;0.40;;
23086;SDS011;11712;51.134;4.156;2023-02-13T15:58:46;0.40;;;0.40;;
23086;SDS011;11712;51.134;4.156;2023-02-13T16:01:13;0.40;;;0.40;;
23086;SDS011;11712;51.134;4.156;2023-02-13T16:03:40;0.40;;;0.40;;
23086;SDS011;11712;51.134;4.156;2023-02-13T16:06:12;0.40;;;0.40;;
23086;SDS011;11712;51.134;4.156;2023-02-13T16:08:43;0.40;;;0.40;;
23086;SDS011;11712;51.134;4.156;2023-02-13T16:16:20;0.40;;;0.40;;
23086;SDS011;11712;51.134;4.156;2023-02-13T16:18:48;0.40;;;0.40;;
23086;SDS011;11712;51.134;4.156;2023-02-13T16:21:14;0.40;;;0.40;;
23086;SDS011;11712;51.134;4.156;2023-02-13T16:23:45;0.40;;;0.40;;
23086;SDS011;11712;51.134;4.156;2023-02-13T16:26:11;0.40;;;0.40;;
23086;SDS011;11712;51.134;4.156;2023-02-13T16:28:39;0.30;;;0.30;;
23086;SDS011;11712;51.134;4.156;2023-02-13T16:31:05;0.40;;;0.40;;
23086;SDS011;11712;51.134;4.156;2023-02-13T16:33:40;0.40;;;0.40;;
23086;SDS011;11712;51.134;4.156;2023-02-13T16:38:36;0.40;;;0.40;;
23086;SDS011;11712;51.134;4.156;2023-02-13T16:43:50;0.40;;;0.40;;
23086;SDS011;11712;51.134;4.156;2023-02-13T16:46:18;0.50;;;0.50;;
23086;SDS011;11712;51.134;4.156;2023-02-13T16:48:57;0.50;;;0.50;;
23086;SDS011;11712;51.134;4.156;2023-02-13T16:53:58;0.50;;;0.50;;
23086;SDS011;11712;51.134;4.156;2023-02-13T16:56:26;0.40;;;0.40;;
23086;SDS011;11712;51.134;4.156;2023-02-13T16:59:09;0.40;;;0.40;;
23086;SDS011;11712;51.134;4.156;2023-02-13T17:01:41;0.40;;;0.40;;
23086;SDS011;11712;51.134;4.156;2023-02-13T17:04:23;0.40;;;0.40;;
23086;SDS011;11712;51.134;4.156;2023-02-13T17:06:55;0.40;;;0.40;;
23086;SDS011;11712;51.134;4.156;2023-02-13T17:09:21;0.40;;;0.40;;
23086;SDS011;11712;51.134;4.156;2023-02-13T17:11:51;0.50;;;0.50;;
23086;SDS011;11712;51.134;4.156;2023-02-13T17:14:17;0.43;;;0.43;;
23086;SDS011;11712;51.134;4.156;2023-02-13T17:16:44;0.50;;;0.50;;
23086;SDS011;11712;51.134;4.156;2023-02-13T17:19:11;0.50;;;0.50;;
23086;SDS011;11712;51.134;4.156;2023-02-13T17:21:36;0.45;;;0.45;;
23086;SDS011;11712;51.134;4.156;2023-02-13T17:24:03;0.40;;;0.40;;
23086;SDS011;11712;51.134;4.156;2023-02-13T17:26:30;0.50;;;0.50;;
23086;SDS011;11712;51.134;4.156;2023-02-13T17:28:56;0.50;;;0.50;;
23086;SDS011;11712;51.134;4.156;2023-02-13T17:31:21;0.50;;;0.50;;
23086;SDS011;11712;51.134;4.156;2023-02-13T17:33:47;0.50;;;0.50;;
23086;SDS011;11712;51.134;4.156;2023-02-13T17:36:13;0.50;;;0.50;;
23086;SDS011;11712;51.134;4.156;2023-02-13T17:38:39;0.50;;;0.50;;
23086;SDS011;11712;51.134;4.156;2023-02-13T17:41:05;0.50;;;0.50;;
23086;SDS011;11712;51.134;4.156;2023-02-13T17:43:36;0.50;;;0.50;;
23086;SDS011;11712;51.134;4.156;2023-02-13T17:46:01;0.50;;;0.50;;
23086;SDS011;11712;51.134;4.156;2023-02-13T17:48:28;0.50;;;0.50;;
23086;SDS011;11712;51.134;4.156;2023-02-13T17:50:54;0.50;;;0.50;;